createdAt,value
2024-01-07T00:02:27.153Z,4.80
2024-01-07T00:05:12.798Z,4.82
2024-01-07T00:08:01.025Z,4.82
2024-01-07T00:10:53.893Z,4.86
2024-01-07T00:13:40.453Z,4.15
2024-01-07T00:16:26.444Z,4.13
2024-01-07T00:19:12.253Z,5.35
2024-01-07T00:21:58.522Z,5.88
2024-01-07T00:24:44.875Z,6.32
2024-01-07T00:27:30.609Z,5.43
2024-01-07T00:30:16.723Z,6.13
2024-01-07T00:33:02.659Z,5.55
2024-01-07T00:35:48.957Z,5.40
2024-01-07T00:38:34.765Z,5.47
2024-01-07T00:41:20.244Z,4.63
2024-01-07T00:44:06.207Z,4.80
2024-01-07T00:46:51.674Z,4.53
2024-01-07T00:49:37.201Z,5.35
2024-01-07T00:52:24.486Z,5.28
2024-01-07T00:55:10.379Z,4.95
2024-01-07T00:57:56.154Z,4.90
2024-01-07T01:00:41.993Z,5.72
2024-01-07T01:03:28.404Z,5.30
2024-01-07T01:06:13.960Z,4.80
2024-01-07T01:09:00.091Z,3.58
2024-01-07T01:11:46.128Z,3.38
2024-01-07T01:14:31.767Z,3.10
2024-01-07T01:17:17.298Z,3.30
2024-01-07T01:20:03.130Z,3.42
2024-01-07T01:22:49.026Z,5.10
2024-01-07T01:25:34.952Z,5.80
2024-01-07T01:28:20.718Z,5.55
2024-01-07T01:31:07.236Z,4.82
2024-01-07T01:33:53.138Z,4.00
2024-01-07T01:36:39.084Z,4.68
2024-01-07T01:39:24.766Z,4.97
2024-01-07T01:42:10.848Z,4.80
2024-01-07T01:45:00.784Z,4.57
2024-01-07T01:47:48.216Z,4.18
2024-01-07T01:50:33.760Z,4.45
2024-01-07T01:53:19.352Z,4.05
2024-01-07T01:56:05.278Z,4.90
2024-01-07T01:58:50.822Z,5.00
2024-01-07T02:01:36.814Z,5.97
2024-01-07T02:04:22.910Z,5.57
2024-01-07T02:07:11.389Z,5.35
2024-01-07T02:09:57.865Z,5.57
2024-01-07T02:12:43.400Z,5.25
2024-01-07T02:15:29.425Z,5.45
2024-01-07T02:18:15.679Z,5.35
2024-01-07T02:21:01.389Z,5.07
2024-01-07T02:23:46.997Z,5.07
2024-01-07T02:26:32.292Z,5.35
2024-01-07T02:29:18.060Z,5.32
2024-01-07T02:32:03.899Z,7.30
2024-01-07T02:34:52.020Z,6.70
2024-01-07T02:37:38.208Z,6.00
2024-01-07T02:40:24.156Z,5.28
2024-01-07T02:43:10.569Z,5.93
2024-01-07T02:45:58.409Z,5.40
2024-01-07T02:48:44.151Z,6.32
2024-01-07T02:51:30.126Z,6.15
2024-01-07T02:54:16.896Z,5.97
2024-01-07T02:57:02.695Z,6.15
2024-01-07T02:59:49.552Z,5.57
2024-01-07T03:02:37.918Z,5.95
2024-01-07T03:05:24.092Z,4.97
2024-01-07T03:08:09.992Z,5.05
2024-01-07T03:10:55.824Z,4.90
2024-01-07T03:13:42.117Z,5.38
2024-01-07T03:16:30.263Z,5.20
2024-01-07T03:19:16.078Z,5.10
2024-01-07T03:22:01.628Z,5.45
2024-01-07T03:24:48.482Z,5.38
2024-01-07T03:27:34.188Z,5.32
2024-01-07T03:30:20.250Z,5.78
2024-01-07T03:33:06.320Z,6.10
2024-01-07T03:35:52.953Z,6.57
2024-01-07T03:38:39.620Z,7.00
2024-01-07T03:41:25.307Z,5.82
2024-01-07T03:44:10.956Z,5.85
2024-01-07T03:46:56.671Z,5.95
2024-01-07T03:49:42.346Z,5.88
2024-01-07T03:52:29.908Z,6.28
2024-01-07T03:55:17.558Z,5.82
2024-01-07T03:58:04.353Z,5.75
2024-01-07T04:00:50.208Z,5.57
2024-01-07T04:03:36.269Z,5.53
2024-01-07T04:06:22.277Z,5.30
2024-01-07T04:09:09.577Z,5.68
2024-01-07T04:11:55.421Z,5.43
2024-01-07T04:14:41.605Z,4.40
2024-01-07T04:17:27.570Z,4.57
2024-01-07T04:20:16.758Z,5.13
2024-01-07T04:23:02.348Z,4.68
2024-01-07T04:25:47.699Z,3.92
2024-01-07T04:28:33.363Z,3.92
2024-01-07T04:31:19.134Z,4.07
2024-01-07T04:34:05.443Z,4.75
2024-01-07T04:36:52.168Z,4.18
2024-01-07T04:39:37.673Z,4.60
2024-01-07T04:42:23.574Z,3.92
2024-01-07T04:45:09.441Z,4.57
2024-01-07T04:47:55.270Z,4.00
2024-01-07T04:50:43.235Z,3.80
2024-01-07T04:53:31.378Z,4.50
2024-01-07T04:56:17.079Z,4.10
2024-01-07T04:59:03.139Z,4.05
2024-01-07T05:01:48.874Z,4.03
2024-01-07T05:04:34.771Z,4.22
2024-01-07T05:07:20.914Z,4.65
2024-01-07T05:10:07.906Z,5.75
2024-01-07T05:12:53.457Z,6.05
2024-01-07T05:15:39.627Z,6.25
2024-01-07T05:18:28.468Z,5.65
2024-01-07T05:21:14.149Z,5.70
2024-01-07T05:23:59.845Z,6.50
2024-01-07T05:26:46.619Z,4.45
2024-01-07T05:29:34.727Z,4.72
2024-01-07T05:32:20.612Z,7.30
2024-01-07T05:35:06.233Z,6.65
2024-01-07T05:37:51.816Z,8.40
2024-01-07T05:40:39.694Z,8.15
2024-01-07T05:43:27.613Z,9.75
2024-01-07T05:46:13.589Z,6.75
2024-01-07T05:48:59.620Z,6.10
2024-01-07T05:51:45.620Z,6.13
2024-01-07T05:54:32.343Z,5.50
2024-01-07T05:57:18.393Z,4.78
2024-01-07T06:00:05.223Z,5.05
2024-01-07T06:02:51.120Z,5.32
2024-01-07T06:05:38.957Z,5.40
2024-01-07T06:08:24.744Z,5.10
2024-01-07T06:11:12.034Z,4.43
2024-01-07T06:13:57.846Z,4.45
2024-01-07T06:16:43.854Z,4.65
2024-01-07T06:19:31.176Z,5.93
2024-01-07T06:22:17.010Z,5.55
2024-01-07T06:25:06.576Z,4.90
2024-01-07T06:27:52.920Z,5.20
2024-01-07T06:30:38.890Z,4.45
2024-01-07T06:33:24.870Z,3.72
2024-01-07T06:36:13.184Z,4.20
2024-01-07T06:38:58.721Z,4.90
2024-01-07T06:41:44.656Z,5.03
2024-01-07T06:44:30.159Z,4.20
2024-01-07T06:47:16.897Z,4.90
2024-01-07T06:50:02.468Z,3.97
2024-01-07T06:52:48.533Z,3.05
2024-01-07T06:55:34.023Z,3.63
2024-01-07T06:58:20.363Z,4.20
2024-01-07T07:01:11.260Z,3.78
2024-01-07T07:03:57.457Z,4.32
2024-01-07T07:06:43.393Z,4.03
2024-01-07T07:09:28.886Z,4.60
2024-01-07T07:12:15.163Z,7.03
2024-01-07T07:15:00.701Z,5.20
2024-01-07T07:17:47.507Z,5.05
2024-01-07T07:20:33.223Z,5.68
2024-01-07T07:23:19.450Z,3.40
2024-01-07T07:26:05.452Z,5.20
2024-01-07T07:28:51.121Z,5.18
2024-01-07T07:31:37.543Z,4.82
2024-01-07T07:34:23.506Z,4.45
2024-01-07T07:37:09.363Z,4.75
2024-01-07T07:39:55.681Z,5.53
2024-01-07T07:42:41.430Z,5.70
2024-01-07T07:45:26.896Z,5.30
2024-01-07T07:48:12.575Z,5.40
2024-01-07T07:50:58.335Z,4.97
2024-01-07T07:53:43.929Z,4.63
2024-01-07T07:56:29.984Z,4.90
2024-01-07T07:59:15.748Z,5.07
2024-01-07T08:02:01.791Z,5.35
2024-01-07T08:04:48.430Z,5.63
2024-01-07T08:07:34.119Z,5.40
2024-01-07T08:10:20.524Z,5.63
2024-01-07T08:13:07.691Z,5.97
2024-01-07T08:15:53.546Z,5.72
2024-01-07T08:18:39.578Z,7.53
2024-01-07T08:21:26.135Z,9.07
2024-01-07T08:24:12.374Z,8.27
2024-01-07T08:26:58.030Z,6.63
2024-01-07T08:29:46.757Z,5.35
2024-01-07T08:32:32.263Z,6.53
2024-01-07T08:35:20.139Z,6.45
2024-01-07T08:38:06.319Z,6.15
2024-01-07T08:40:51.854Z,5.88
2024-01-07T08:43:37.482Z,6.72
2024-01-07T08:46:22.940Z,7.18
2024-01-07T08:49:08.685Z,5.53
2024-01-07T08:51:57.529Z,6.00
2024-01-07T08:54:43.379Z,6.60
2024-01-07T08:57:29.161Z,5.88
2024-01-07T09:00:15.494Z,5.53
2024-01-07T09:03:01.559Z,6.45
2024-01-07T09:05:47.701Z,5.70
2024-01-07T09:08:33.540Z,6.28
2024-01-07T09:11:23.236Z,6.13
2024-01-07T09:14:09.528Z,5.25
2024-01-07T09:16:55.527Z,8.18
2024-01-07T09:19:41.426Z,8.57
2024-01-07T09:22:27.454Z,7.53
2024-01-07T09:25:15.681Z,7.93
2024-01-07T09:28:02.022Z,7.95
2024-01-07T09:30:47.689Z,8.73
2024-01-07T09:33:33.697Z,7.00
2024-01-07T09:36:26.550Z,6.97
2024-01-07T09:39:16.243Z,6.10
2024-01-07T09:42:02.410Z,5.70
2024-01-07T09:44:49.228Z,6.65
2024-01-07T09:47:36.544Z,6.97
2024-01-07T09:50:24.591Z,9.20
2024-01-07T09:53:17.725Z,6.78
2024-01-07T09:56:24.253Z,6.43
2024-01-07T09:59:10.625Z,5.63
2024-01-07T10:01:58.368Z,5.68
2024-01-07T10:04:46.153Z,6.53
2024-01-07T10:07:31.882Z,7.22
2024-01-07T10:10:23.755Z,6.75
2024-01-07T10:13:10.281Z,8.43
2024-01-07T10:15:58.789Z,5.75
2024-01-07T10:18:44.911Z,6.25
2024-01-07T10:21:33.265Z,6.53
2024-01-07T10:24:19.180Z,5.75
2024-01-07T10:27:06.097Z,6.82
2024-01-07T10:29:52.137Z,5.93
2024-01-07T10:32:40.400Z,6.10
2024-01-07T10:35:37.357Z,7.97
2024-01-07T10:38:26.008Z,7.43
2024-01-07T10:41:13.015Z,7.50
2024-01-07T10:44:00.840Z,7.57
2024-01-07T10:46:48.154Z,7.93
2024-01-07T10:49:36.513Z,8.68
2024-01-07T10:52:24.885Z,7.53
2024-01-07T10:55:12.882Z,7.18
2024-01-07T10:57:59.695Z,6.80
2024-01-07T11:00:45.619Z,7.00
2024-01-07T11:03:57.663Z,6.28
2024-01-07T11:07:12.187Z,6.03
2024-01-07T11:10:11.881Z,6.07
2024-01-07T11:13:00.916Z,5.45
2024-01-07T11:15:49.919Z,7.05
2024-01-07T11:18:38.932Z,6.22
2024-01-07T11:21:27.934Z,7.50
2024-01-07T11:24:42.596Z,8.27
2024-01-07T11:27:34.435Z,8.50
2024-01-07T11:30:21.211Z,10.48
2024-01-07T11:33:07.165Z,7.15
2024-01-07T11:36:03.987Z,7.55
2024-01-07T11:38:54.336Z,8.75
2024-01-07T11:41:41.459Z,7.85
2024-01-07T11:44:27.271Z,7.88
2024-01-07T11:47:12.989Z,10.00
2024-01-07T11:49:58.826Z,11.50
2024-01-07T11:52:44.775Z,10.18
2024-01-07T11:55:34.113Z,8.73
2024-01-07T11:58:19.720Z,7.00
2024-01-07T12:01:05.566Z,8.05
2024-01-07T12:03:51.806Z,6.13
2024-01-07T12:06:37.696Z,5.32
2024-01-07T12:09:23.735Z,7.95
2024-01-07T12:12:09.449Z,8.23
2024-01-07T12:14:55.408Z,9.20
2024-01-07T12:17:41.770Z,8.75
2024-01-07T12:20:29.088Z,10.43
2024-01-07T12:23:14.688Z,7.13
2024-01-07T12:26:10.494Z,10.05
2024-01-07T12:29:01.114Z,7.82
2024-01-07T12:31:48.168Z,7.45
2024-01-07T12:34:34.497Z,7.65
2024-01-07T12:37:20.455Z,7.35
2024-01-07T12:40:10.289Z,7.85
2024-01-07T12:42:56.168Z,7.85
2024-01-07T12:45:41.657Z,7.63
2024-01-07T12:48:29.667Z,6.85
2024-01-07T12:51:15.293Z,7.93
2024-01-07T12:54:04.742Z,6.60
2024-01-07T12:56:50.665Z,8.05
2024-01-07T12:59:36.174Z,8.88
2024-01-07T13:02:22.350Z,9.00
2024-01-07T13:05:09.306Z,8.95
2024-01-07T13:07:55.400Z,9.60
2024-01-07T13:10:41.313Z,8.35
2024-01-07T13:13:27.058Z,8.60
2024-01-07T13:16:12.649Z,8.70
2024-01-07T13:18:58.593Z,8.43
2024-01-07T13:21:44.410Z,9.20
2024-01-07T13:24:29.817Z,11.02
2024-01-07T13:27:19.833Z,10.23
2024-01-07T13:30:09.371Z,10.80
2024-01-07T13:32:58.672Z,8.30
2024-01-07T13:35:45.398Z,9.75
2024-01-07T13:38:32.079Z,7.53
2024-01-07T13:41:18.353Z,7.72
2024-01-07T13:44:06.424Z,9.38
2024-01-07T13:46:53.309Z,8.65
2024-01-07T13:49:39.217Z,9.02
2024-01-07T13:52:27.227Z,8.75
2024-01-07T13:55:16.467Z,8.18
2024-01-07T13:58:02.330Z,9.05
2024-01-07T14:00:48.309Z,10.52
2024-01-07T14:03:36.962Z,8.27
2024-01-07T14:06:23.211Z,7.40
2024-01-07T14:09:10.194Z,8.40
2024-01-07T14:11:56.060Z,9.45
2024-01-07T14:14:41.626Z,9.55
2024-01-07T14:17:27.805Z,10.20
2024-01-07T14:20:14.086Z,10.77
2024-01-07T14:23:00.077Z,8.50
2024-01-07T14:25:45.948Z,9.70
2024-01-07T14:28:31.723Z,10.13
2024-01-07T14:31:18.225Z,9.40
2024-01-07T14:34:04.207Z,8.80
2024-01-07T14:36:50.233Z,9.23
2024-01-07T14:39:36.287Z,8.55
2024-01-07T14:42:22.221Z,9.73
2024-01-07T14:45:08.520Z,8.75
2024-01-07T14:47:54.718Z,10.25
2024-01-07T14:50:42.209Z,8.95
2024-01-07T14:53:29.787Z,9.73
2024-01-07T14:56:15.409Z,9.73
2024-01-07T14:59:01.020Z,9.60
2024-01-07T15:01:46.744Z,9.30
2024-01-07T15:04:32.781Z,10.68
2024-01-07T15:07:20.181Z,10.77
2024-01-07T15:10:08.559Z,8.75
2024-01-07T15:13:02.236Z,8.38
2024-01-07T15:15:52.858Z,7.97
2024-01-07T15:18:39.262Z,8.40
2024-01-07T15:21:25.795Z,7.35
2024-01-07T15:24:12.962Z,7.95
2024-01-07T15:26:58.772Z,7.53
2024-01-07T15:29:44.341Z,8.85
2024-01-07T15:32:30.103Z,8.77
2024-01-07T15:35:15.617Z,7.50
2024-01-07T15:38:01.090Z,6.80
2024-01-07T15:40:46.555Z,10.05
2024-01-07T15:43:31.962Z,8.18
2024-01-07T15:46:17.949Z,8.00
2024-01-07T15:49:03.900Z,8.80
2024-01-07T15:51:49.864Z,7.35
2024-01-07T15:54:35.788Z,8.07
2024-01-07T15:57:21.824Z,10.07
2024-01-07T16:00:09.502Z,9.52
2024-01-07T16:02:55.708Z,9.55
2024-01-07T16:05:41.257Z,12.35
2024-01-07T16:08:31.544Z,10.75
2024-01-07T16:11:18.968Z,9.77
2024-01-07T16:14:04.922Z,7.15
2024-01-07T16:16:50.312Z,9.02
2024-01-07T16:19:35.847Z,6.15
2024-01-07T16:22:21.797Z,7.25
2024-01-07T16:25:09.003Z,8.82
2024-01-07T16:27:56.219Z,8.82
2024-01-07T16:30:41.893Z,8.00
2024-01-07T16:33:28.018Z,8.30
2024-01-07T16:36:14.177Z,7.85
2024-01-07T16:39:02.344Z,6.90
2024-01-07T16:41:48.059Z,10.48
2024-01-07T16:44:35.583Z,7.90
2024-01-07T16:47:21.101Z,10.27
2024-01-07T16:52:58.827Z,9.18
2024-01-07T16:55:44.648Z,8.40
2024-01-07T16:58:30.617Z,8.93
2024-01-07T17:01:19.356Z,6.78
2024-01-07T17:04:06.235Z,7.05
2024-01-07T17:06:52.140Z,9.70
2024-01-07T17:09:38.157Z,10.85
2024-01-07T17:12:23.852Z,10.88
2024-01-07T17:15:10.712Z,10.68
2024-01-07T17:17:59.376Z,10.93
2024-01-07T17:20:45.319Z,11.55
2024-01-07T17:23:31.199Z,9.15
2024-01-07T17:26:17.172Z,10.88
2024-01-07T17:29:03.387Z,9.43
2024-01-07T17:31:49.056Z,10.73
2024-01-07T17:34:34.573Z,8.55
2024-01-07T17:37:20.242Z,9.18
2024-01-07T17:40:07.170Z,10.02
2024-01-07T17:42:57.448Z,9.55
2024-01-07T17:45:43.335Z,9.00
2024-01-07T17:48:29.512Z,9.95
2024-01-07T17:51:20.214Z,11.13
2024-01-07T17:54:05.965Z,9.48
2024-01-07T17:56:52.361Z,10.77
2024-01-07T17:59:38.168Z,10.15
2024-01-07T18:02:24.870Z,7.25
2024-01-07T18:05:11.021Z,11.30
2024-01-07T18:07:57.079Z,9.70
2024-01-07T18:10:44.525Z,10.02
2024-01-07T18:13:30.904Z,11.50
2024-01-07T18:16:16.382Z,10.30
2024-01-07T18:19:03.027Z,12.70
2024-01-07T18:21:51.128Z,9.52
2024-01-07T18:24:36.767Z,11.02
2024-01-07T18:27:22.254Z,9.27
2024-01-07T18:30:08.843Z,9.38
2024-01-07T18:32:54.929Z,11.88
2024-01-07T18:35:42.730Z,12.43
2024-01-07T18:38:30.732Z,13.65
2024-01-07T18:41:22.519Z,14.18
2024-01-07T18:44:11.709Z,12.20
2024-01-07T18:46:57.493Z,13.55
2024-01-07T18:49:43.473Z,13.35
2024-01-07T18:52:29.726Z,12.48
2024-01-07T18:55:15.998Z,13.20
2024-01-07T18:58:01.566Z,12.77
2024-01-07T19:00:48.773Z,12.20
2024-01-07T19:03:34.873Z,13.45
2024-01-07T19:06:20.438Z,11.38
2024-01-07T19:09:06.732Z,14.90
2024-01-07T19:11:55.754Z,15.52
2024-01-07T19:14:43.909Z,14.48
2024-01-07T19:17:30.223Z,14.05
2024-01-07T19:20:16.887Z,13.20
2024-01-07T19:23:03.048Z,12.77
2024-01-07T19:25:51.330Z,12.73
2024-01-07T19:28:38.046Z,10.90
2024-01-07T19:31:25.602Z,13.80
2024-01-07T19:34:11.322Z,14.35
2024-01-07T19:36:58.096Z,15.30
2024-01-07T19:39:43.838Z,14.13
2024-01-07T19:42:29.636Z,14.15
2024-01-07T19:45:29.612Z,14.57
2024-01-07T19:48:16.111Z,13.10
2024-01-07T19:51:05.345Z,16.48
2024-01-07T19:53:53.440Z,17.83
2024-01-07T19:56:39.204Z,16.05
2024-01-07T19:59:25.024Z,15.48
2024-01-07T20:02:17.379Z,15.18
2024-01-07T20:05:03.429Z,14.23
2024-01-07T20:07:52.174Z,13.20
2024-01-07T20:10:37.661Z,14.63
2024-01-07T20:13:24.172Z,14.23
2024-01-07T20:16:09.806Z,15.50
2024-01-07T20:18:59.524Z,13.07
2024-01-07T20:21:45.231Z,13.15
2024-01-07T20:24:30.798Z,15.35
2024-01-07T20:27:17.145Z,13.77
2024-01-07T20:30:05.165Z,13.85
2024-01-07T20:32:50.833Z,14.73
2024-01-07T20:35:37.929Z,14.82
2024-01-07T20:38:24.788Z,12.23
2024-01-07T20:41:11.264Z,14.15
2024-01-07T20:43:57.123Z,14.60
2024-01-07T20:46:45.486Z,13.50
2024-01-07T20:49:31.533Z,13.20
2024-01-07T20:52:19.973Z,13.85
2024-01-07T20:55:06.249Z,14.43
2024-01-07T20:57:52.277Z,12.68
2024-01-07T21:00:38.675Z,14.68
2024-01-07T21:03:25.691Z,12.73
2024-01-07T21:06:11.703Z,14.38
2024-01-07T21:08:57.886Z,13.70
2024-01-07T21:11:43.556Z,13.30
2024-01-07T21:14:29.383Z,14.60
2024-01-07T21:17:15.637Z,14.93
2024-01-07T21:20:01.380Z,11.48
2024-01-07T21:22:47.279Z,14.77
2024-01-07T21:25:33.565Z,13.85
2024-01-07T21:28:19.709Z,13.15
2024-01-07T21:31:06.841Z,14.65
2024-01-07T21:33:54.548Z,14.57
2024-01-07T21:36:43.635Z,13.82
2024-01-07T21:39:29.208Z,13.35
2024-01-07T21:42:16.833Z,14.60
2024-01-07T21:45:05.862Z,13.70
2024-01-07T21:47:51.453Z,14.15
2024-01-07T21:50:37.151Z,13.20
2024-01-07T21:53:23.402Z,13.85
2024-01-07T21:56:09.477Z,15.68
2024-01-07T21:58:55.412Z,15.30
2024-01-07T22:01:41.762Z,15.32
2024-01-07T22:04:28.222Z,15.63
2024-01-07T22:07:13.772Z,15.02
2024-01-07T22:09:59.499Z,14.70
2024-01-07T22:12:45.288Z,14.50
2024-01-07T22:15:31.572Z,14.70
2024-01-07T22:18:17.576Z,15.23
2024-01-07T22:21:03.703Z,16.30
2024-01-07T22:23:49.604Z,14.18
2024-01-07T22:26:35.613Z,14.77
2024-01-07T22:29:23.737Z,14.00
2024-01-07T22:32:09.343Z,15.95
2024-01-07T22:34:56.567Z,18.45
2024-01-07T22:37:43.620Z,19.77
2024-01-07T22:40:30.220Z,17.17
2024-01-07T22:43:18.925Z,17.17
2024-01-07T22:46:06.317Z,16.27
2024-01-07T22:48:51.928Z,16.92
2024-01-07T22:51:43.406Z,15.13
2024-01-07T22:54:32.652Z,15.73
2024-01-07T22:57:18.530Z,16.58
2024-01-07T23:00:06.531Z,16.63
2024-01-07T23:02:52.881Z,16.20
2024-01-07T23:05:39.925Z,16.02
2024-01-07T23:08:28.419Z,15.30
2024-01-07T23:11:13.991Z,15.57
2024-01-07T23:14:00.342Z,14.98
2024-01-07T23:16:46.217Z,16.50
2024-01-07T23:19:32.217Z,15.70
2024-01-07T23:22:18.159Z,14.43
2024-01-07T23:25:04.528Z,14.13
2024-01-07T23:27:50.704Z,15.07
2024-01-07T23:30:36.587Z,14.02
2024-01-07T23:33:22.387Z,13.13
2024-01-07T23:36:08.401Z,13.80
2024-01-07T23:38:54.137Z,14.93
2024-01-07T23:41:39.777Z,14.20
2024-01-07T23:44:26.029Z,11.68
2024-01-07T23:47:11.932Z,14.13
2024-01-07T23:49:57.734Z,14.82
2024-01-07T23:52:43.377Z,13.40
2024-01-07T23:55:28.856Z,14.05
2024-01-07T23:58:16.973Z,14.57
